PWSweather.com
Personal Weather Stations
Station Observations
ANTHEMNP
Anthem, AZ 85086

Anthem, AZ 85086

Lat: 33.876464, Lon: -112.13861199999997

Elevation: 1930

Station Type: AcuRite 1036

High Low Average
Temperature 111.6°F44.2°C 76.6°F24.8°C 96.0°F35.6°C
Dew Point 42.4°F5.8°C 24.5°F-4.2°C 34.8°F1.6°C
Winds 8.1 mph 13.0 kmh Calm Calm 3.0 mph SSE4.8 kmh SSE
Wind Gusts 12.7 mph20.4 kmh -- 4.0 mph6.4 kmh
Humidity 16% 10% 12%
Pressure 29.82 in1009.8 mb 29.67 in1004.7 mb -
Precipitation 0.00 in0.0 mm - -
Hour Temp Dew Point Humidity Winds Wind Gusts Pressure Precip Precip Rate Daily Precip Total
12:00 AM 86.4°F30.2°C 27.8°F-2.3°C 12% 1.2 mph S1.9 kmh S 1.2 mph1.9 kmh 29.77 in1008.1 mb - 0.00 in0.0 mm 0.00 in0.0 mm
12:05 AM 85.9°F29.9°C 27.4°F-2.6°C 12% 1.2 mph ESE1.9 kmh ESE 2.3 mph3.7 kmh 29.77 in1008.1 mb - 0.00 in0.0 mm 0.00 in0.0 mm
12:10 AM 85.6°F29.8°C 27.1°F-2.7°C 12% 2.3 mph SE3.7 kmh SE 2.3 mph3.7 kmh 29.77 in1008.1 mb - 0.00 in0.0 mm 0.00 in0.0 mm
12:15 AM 85.6°F29.8°C 27.1°F-2.7°C 12% 2.3 mph SE3.7 kmh SE 2.3 mph3.7 kmh 29.77 in1008.1 mb - 0.00 in0.0 mm 0.00 in0.0 mm
12:20 AM 85.6°F29.8°C 27.1°F-2.7°C 12% 1.2 mph SSE1.9 kmh SSE 3.5 mph5.6 kmh 29.77 in1008.1 mb - 0.00 in0.0 mm 0.00 in0.0 mm
12:25 AM 86.3°F30.2°C 27.7°F-2.4°C 12% 2.3 mph S3.7 kmh S 2.3 mph3.7 kmh 29.77 in1008.1 mb - 0.00 in0.0 mm 0.00 in0.0 mm
12:30 AM 87.1°F30.6°C 28.3°F-2.1°C 12% 1.2 mph SE1.9 kmh SE 1.2 mph1.9 kmh 29.77 in1008.1 mb - 0.00 in0.0 mm 0.00 in0.0 mm
12:35 AM 86.0°F30.0°C 27.5°F-2.5°C 12% 2.3 mph SE3.7 kmh SE 2.3 mph3.7 kmh 29.76 in1007.8 mb - 0.00 in0.0 mm 0.00 in0.0 mm
12:40 AM 85.8°F29.9°C 27.3°F-2.6°C 12% Calm Calm -- 29.76 in1007.8 mb - 0.00 in0.0 mm 0.00 in0.0 mm
12:45 AM 85.0°F29.4°C 28.6°F-1.9°C 13% Calm Calm -- 29.76 in1007.8 mb - 0.00 in0.0 mm 0.00 in0.0 mm
12:50 AM 84.2°F29.0°C 28.0°F-2.2°C 13% Calm Calm -- 29.76 in1007.8 mb - 0.00 in0.0 mm 0.00 in0.0 mm
12:55 AM 83.6°F28.7°C 27.5°F-2.5°C 13% Calm Calm -- 29.76 in1007.8 mb - 0.00 in0.0 mm 0.00 in0.0 mm
01:00 AM 83.3°F28.5°C 27.3°F-2.6°C 13% 1.2 mph NE1.9 kmh NE 1.2 mph1.9 kmh 29.77 in1008.1 mb - 0.00 in0.0 mm 0.00 in0.0 mm
01:05 AM 82.7°F28.2°C 26.8°F-2.9°C 13% Calm Calm -- 29.77 in1008.1 mb - 0.00 in0.0 mm 0.00 in0.0 mm
01:10 AM 82.6°F28.1°C 26.7°F-2.9°C 13% Calm Calm -- 29.77 in1008.1 mb - 0.00 in0.0 mm 0.00 in0.0 mm
01:15 AM 82.6°F28.1°C 26.7°F-2.9°C 13% Calm Calm -- 29.77 in1008.1 mb - 0.00 in0.0 mm 0.00 in0.0 mm
01:20 AM 82.6°F28.1°C 26.7°F-2.9°C 13% Calm Calm -- 29.77 in1008.1 mb - 0.00 in0.0 mm 0.00 in0.0 mm
01:25 AM 82.3°F27.9°C 26.5°F-3.1°C 13% Calm Calm -- 29.77 in1008.1 mb - 0.00 in0.0 mm 0.00 in0.0 mm
01:30 AM 81.7°F27.6°C 27.8°F-2.3°C 14% Calm Calm -- 29.77 in1008.1 mb - 0.00 in0.0 mm 0.00 in0.0 mm
01:35 AM 80.6°F27.0°C 27.0°F-2.8°C 14% 2.3 mph N3.7 kmh N 2.3 mph3.7 kmh 29.77 in1008.1 mb - 0.00 in0.0 mm 0.00 in0.0 mm
01:40 AM 80.4°F26.9°C 26.8°F-2.9°C 14% 2.3 mph NE3.7 kmh NE 1.2 mph1.9 kmh 29.77 in1008.1 mb - 0.00 in0.0 mm 0.00 in0.0 mm
01:45 AM 80.1°F26.7°C 26.6°F-3.0°C 14% 2.3 mph ENE3.7 kmh ENE 2.3 mph3.7 kmh 29.77 in1008.1 mb - 0.00 in0.0 mm 0.00 in0.0 mm
01:50 AM 80.4°F26.9°C 26.8°F-2.9°C 14% 2.3 mph NNE3.7 kmh NNE 2.3 mph3.7 kmh 29.77 in1008.1 mb - 0.00 in0.0 mm 0.00 in0.0 mm
01:55 AM 80.1°F26.7°C 26.6°F-3.0°C 14% Calm Calm 1.2 mph1.9 kmh 29.77 in1008.1 mb - 0.00 in0.0 mm 0.00 in0.0 mm
02:00 AM 80.1°F26.7°C 26.6°F-3.0°C 14% 3.5 mph ENE5.6 kmh ENE 3.5 mph5.6 kmh 29.77 in1008.1 mb - 0.00 in0.0 mm 0.00 in0.0 mm
02:05 AM 80.1°F26.7°C 26.6°F-3.0°C 14% 2.3 mph NNE3.7 kmh NNE 3.5 mph5.6 kmh 29.77 in1008.1 mb - 0.00 in0.0 mm 0.00 in0.0 mm
02:10 AM 79.9°F26.6°C 26.4°F-3.1°C 14% 2.3 mph NE3.7 kmh NE 2.3 mph3.7 kmh 29.77 in1008.1 mb - 0.00 in0.0 mm 0.00 in0.0 mm
02:15 AM 79.6°F26.4°C 26.2°F-3.2°C 14% Calm Calm -- 29.77 in1008.1 mb - 0.00 in0.0 mm 0.00 in0.0 mm
02:20 AM 79.2°F26.2°C 25.9°F-3.4°C 14% Calm Calm -- 29.77 in1008.1 mb - 0.00 in0.0 mm 0.00 in0.0 mm
02:25 AM 78.5°F25.8°C 27.0°F-2.8°C 15% Calm Calm -- 29.77 in1008.1 mb - 0.00 in0.0 mm 0.00 in0.0 mm
02:30 AM 78.6°F25.9°C 27.1°F-2.7°C 15% Calm Calm -- 29.77 in1008.1 mb - 0.00 in0.0 mm 0.00 in0.0 mm
02:35 AM 78.4°F25.8°C 26.9°F-2.8°C 15% Calm Calm -- 29.77 in1008.1 mb - 0.00 in0.0 mm 0.00 in0.0 mm
02:40 AM 78.4°F25.8°C 25.2°F-3.8°C 14% Calm Calm -- 29.77 in1008.1 mb - 0.00 in0.0 mm 0.00 in0.0 mm
02:45 AM 77.9°F25.5°C 24.9°F-3.9°C 14% Calm Calm -- 29.77 in1008.1 mb - 0.00 in0.0 mm 0.00 in0.0 mm
02:50 AM 77.5°F25.3°C 24.5°F-4.2°C 14% 2.3 mph NNE3.7 kmh NNE 2.3 mph3.7 kmh 29.77 in1008.1 mb - 0.00 in0.0 mm 0.00 in0.0 mm
02:55 AM 77.9°F25.5°C 24.8°F-4.0°C 14% 2.3 mph NE3.7 kmh NE 3.5 mph5.6 kmh 29.77 in1008.1 mb - 0.00 in0.0 mm 0.00 in0.0 mm
03:00 AM 78.1°F25.6°C 25.0°F-3.9°C 14% 2.3 mph E3.7 kmh E 3.5 mph5.6 kmh 29.77 in1008.1 mb - 0.00 in0.0 mm 0.00 in0.0 mm
03:05 AM 78.3°F25.7°C 25.1°F-3.8°C 14% 2.3 mph N3.7 kmh N 2.3 mph3.7 kmh 29.77 in1008.1 mb - 0.00 in0.0 mm 0.00 in0.0 mm
03:10 AM 78.4°F25.8°C 25.2°F-3.8°C 14% 2.3 mph N3.7 kmh N 2.3 mph3.7 kmh 29.77 in1008.1 mb - 0.00 in0.0 mm 0.00 in0.0 mm
03:15 AM 78.6°F25.9°C 25.4°F-3.7°C 14% Calm Calm -- 29.77 in1008.1 mb - 0.00 in0.0 mm 0.00 in0.0 mm
03:20 AM 78.4°F25.8°C 25.3°F-3.7°C 14% Calm Calm -- 29.77 in1008.1 mb - 0.00 in0.0 mm 0.00 in0.0 mm
03:25 AM 78.0°F25.6°C 26.6°F-3.0°C 15% Calm Calm -- 29.77 in1008.1 mb - 0.00 in0.0 mm 0.00 in0.0 mm
03:30 AM 77.5°F25.3°C 26.2°F-3.2°C 15% Calm Calm 2.3 mph3.7 kmh 29.77 in1008.1 mb - 0.00 in0.0 mm 0.00 in0.0 mm
03:35 AM 77.0°F25.0°C 25.8°F-3.4°C 15% 3.5 mph N5.6 kmh N 3.5 mph5.6 kmh 29.77 in1008.1 mb - 0.00 in0.0 mm 0.00 in0.0 mm
03:40 AM 77.2°F25.1°C 25.9°F-3.4°C 15% 2.3 mph NE3.7 kmh NE 2.3 mph3.7 kmh 29.77 in1008.1 mb - 0.00 in0.0 mm 0.00 in0.0 mm
03:45 AM 77.4°F25.2°C 26.1°F-3.3°C 15% 2.3 mph N3.7 kmh N 4.6 mph7.4 kmh 29.78 in1008.5 mb - 0.00 in0.0 mm 0.00 in0.0 mm
03:50 AM 77.4°F25.2°C 26.1°F-3.3°C 15% 2.3 mph NNE3.7 kmh NNE 3.5 mph5.6 kmh 29.78 in1008.5 mb - 0.00 in0.0 mm 0.00 in0.0 mm
03:55 AM 77.4°F25.2°C 26.1°F-3.3°C 15% 3.5 mph N5.6 kmh N 3.5 mph5.6 kmh 29.78 in1008.5 mb - 0.00 in0.0 mm 0.00 in0.0 mm
04:00 AM 77.4°F25.2°C 26.1°F-3.3°C 15% 2.3 mph N3.7 kmh N 2.3 mph3.7 kmh 29.78 in1008.5 mb - 0.00 in0.0 mm 0.00 in0.0 mm
04:05 AM 77.5°F25.3°C 26.2°F-3.2°C 15% 2.3 mph NNE3.7 kmh NNE 2.3 mph3.7 kmh 29.78 in1008.5 mb - 0.00 in0.0 mm 0.00 in0.0 mm
04:10 AM 77.5°F25.3°C 26.2°F-3.2°C 15% 2.3 mph N3.7 kmh N 2.3 mph3.7 kmh 29.79 in1008.8 mb - 0.00 in0.0 mm 0.00 in0.0 mm
04:15 AM 77.4°F25.2°C 26.1°F-3.3°C 15% 3.5 mph NNE5.6 kmh NNE 3.5 mph5.6 kmh 29.79 in1008.8 mb - 0.00 in0.0 mm 0.00 in0.0 mm
04:20 AM 77.4°F25.2°C 26.1°F-3.3°C 15% 3.5 mph NE5.6 kmh NE 4.6 mph7.4 kmh 29.78 in1008.5 mb - 0.00 in0.0 mm 0.00 in0.0 mm
04:25 AM 77.2°F25.1°C 26.0°F-3.3°C 15% 3.5 mph NNE5.6 kmh NNE 3.5 mph5.6 kmh 29.78 in1008.5 mb - 0.00 in0.0 mm 0.00 in0.0 mm
04:30 AM 77.2°F25.1°C 25.9°F-3.4°C 15% 3.5 mph NE5.6 kmh NE 3.5 mph5.6 kmh 29.78 in1008.5 mb - 0.00 in0.0 mm 0.00 in0.0 mm
04:35 AM 77.2°F25.1°C 25.9°F-3.4°C 15% 4.6 mph NNW7.4 kmh NNW 4.6 mph7.4 kmh 29.79 in1008.8 mb - 0.00 in0.0 mm 0.00 in0.0 mm
04:40 AM 77.2°F25.1°C 25.9°F-3.4°C 15% 2.3 mph NE3.7 kmh NE 2.3 mph3.7 kmh 29.79 in1008.8 mb - 0.00 in0.0 mm 0.00 in0.0 mm
04:45 AM 77.0°F25.0°C 25.8°F-3.4°C 15% 2.3 mph NNE3.7 kmh NNE 3.5 mph5.6 kmh 29.79 in1008.8 mb - 0.00 in0.0 mm 0.00 in0.0 mm
04:50 AM 77.0°F25.0°C 25.8°F-3.4°C 15% 3.5 mph NE5.6 kmh NE 3.5 mph5.6 kmh 29.79 in1008.8 mb - 0.00 in0.0 mm 0.00 in0.0 mm
04:55 AM 77.2°F25.1°C 25.9°F-3.4°C 15% 3.5 mph ENE5.6 kmh ENE 4.6 mph7.4 kmh 29.79 in1008.8 mb - 0.00 in0.0 mm 0.00 in0.0 mm
05:00 AM 77.4°F25.2°C 26.1°F-3.3°C 15% 2.3 mph NNE3.7 kmh NNE 3.5 mph5.6 kmh 29.79 in1008.8 mb - 0.00 in0.0 mm 0.00 in0.0 mm
05:05 AM 77.4°F25.2°C 26.1°F-3.3°C 15% 2.3 mph NE3.7 kmh NE 2.3 mph3.7 kmh 29.79 in1008.8 mb - 0.00 in0.0 mm 0.00 in0.0 mm
05:10 AM 77.2°F25.1°C 25.9°F-3.4°C 15% 2.3 mph N3.7 kmh N 2.3 mph3.7 kmh 29.79 in1008.8 mb - 0.00 in0.0 mm 0.00 in0.0 mm
05:15 AM 77.2°F25.1°C 25.9°F-3.4°C 15% 1.2 mph NNW1.9 kmh NNW 1.2 mph1.9 kmh 29.79 in1008.8 mb - 0.00 in0.0 mm 0.00 in0.0 mm
05:20 AM 77.0°F25.0°C 25.8°F-3.4°C 15% 2.3 mph N3.7 kmh N 2.3 mph3.7 kmh 29.80 in1009.1 mb - 0.00 in0.0 mm 0.00 in0.0 mm
05:25 AM 77.0°F25.0°C 25.8°F-3.4°C 15% 3.5 mph N5.6 kmh N 4.6 mph7.4 kmh 29.80 in1009.1 mb - 0.00 in0.0 mm 0.00 in0.0 mm
05:30 AM 77.0°F25.0°C 25.8°F-3.4°C 15% 1.2 mph N1.9 kmh N 2.3 mph3.7 kmh 29.80 in1009.1 mb - 0.00 in0.0 mm 0.00 in0.0 mm
05:35 AM 77.0°F25.0°C 25.8°F-3.4°C 15% 3.5 mph N5.6 kmh N 3.5 mph5.6 kmh 29.80 in1009.1 mb - 0.00 in0.0 mm 0.00 in0.0 mm
05:40 AM 77.2°F25.1°C 25.9°F-3.4°C 15% 2.3 mph NNE3.7 kmh NNE 2.3 mph3.7 kmh 29.80 in1009.1 mb - 0.00 in0.0 mm 0.00 in0.0 mm
05:45 AM 77.0°F25.0°C 25.8°F-3.4°C 15% Calm Calm 1.2 mph1.9 kmh 29.80 in1009.1 mb - 0.00 in0.0 mm 0.00 in0.0 mm
05:50 AM 76.8°F24.9°C 25.6°F-3.6°C 15% 2.3 mph N3.7 kmh N 2.3 mph3.7 kmh 29.80 in1009.1 mb - 0.00 in0.0 mm 0.00 in0.0 mm
05:55 AM 76.7°F24.8°C 27.1°F-2.7°C 16% 2.3 mph NE3.7 kmh NE 3.5 mph5.6 kmh 29.80 in1009.1 mb - 0.00 in0.0 mm 0.00 in0.0 mm
06:00 AM 76.6°F24.8°C 27.0°F-2.8°C 16% 3.5 mph N5.6 kmh N 3.5 mph5.6 kmh 29.80 in1009.1 mb - 0.00 in0.0 mm 0.00 in0.0 mm
06:05 AM 77.2°F25.1°C 25.9°F-3.4°C 15% 3.5 mph NNE5.6 kmh NNE 4.6 mph7.4 kmh 29.80 in1009.1 mb - 0.00 in0.0 mm 0.00 in0.0 mm
06:10 AM 78.5°F25.8°C 27.0°F-2.8°C 15% 3.5 mph NNE5.6 kmh NNE 3.5 mph5.6 kmh 29.81 in1009.5 mb - 0.00 in0.0 mm 0.00 in0.0 mm
06:15 AM 79.8°F26.6°C 26.3°F-3.2°C 14% 3.5 mph NNE5.6 kmh NNE 3.5 mph5.6 kmh 29.81 in1009.5 mb - 0.00 in0.0 mm 0.00 in0.0 mm
06:20 AM 80.5°F26.9°C 26.9°F-2.8°C 14% 3.5 mph N5.6 kmh N 4.6 mph7.4 kmh 29.81 in1009.5 mb - 0.00 in0.0 mm 0.00 in0.0 mm
06:25 AM 81.2°F27.3°C 27.4°F-2.6°C 14% 3.5 mph E5.6 kmh E 3.5 mph5.6 kmh 29.81 in1009.5 mb - 0.00 in0.0 mm 0.00 in0.0 mm
06:30 AM 82.0°F27.8°C 28.1°F-2.2°C 14% 3.5 mph NNW5.6 kmh NNW 3.5 mph5.6 kmh 29.81 in1009.5 mb - 0.00 in0.0 mm 0.00 in0.0 mm
06:35 AM 82.6°F28.1°C 28.5°F-1.9°C 14% 3.5 mph N5.6 kmh N 4.6 mph7.4 kmh 29.81 in1009.5 mb - 0.00 in0.0 mm 0.00 in0.0 mm
06:40 AM 83.3°F28.5°C 29.1°F-1.6°C 14% 2.3 mph N3.7 kmh N 3.5 mph5.6 kmh 29.81 in1009.5 mb - 0.00 in0.0 mm 0.00 in0.0 mm
06:45 AM 83.8°F28.8°C 29.5°F-1.4°C 14% 2.3 mph NE3.7 kmh NE 3.5 mph5.6 kmh 29.81 in1009.5 mb - 0.00 in0.0 mm 0.00 in0.0 mm
06:50 AM 84.5°F29.2°C 28.2°F-2.1°C 13% 3.5 mph NNE5.6 kmh NNE 3.5 mph5.6 kmh 29.81 in1009.5 mb - 0.00 in0.0 mm 0.00 in0.0 mm
06:55 AM 84.7°F29.3°C 28.4°F-2.0°C 13% 2.3 mph NNW3.7 kmh NNW 3.5 mph5.6 kmh 29.81 in1009.5 mb - 0.00 in0.0 mm 0.00 in0.0 mm
07:00 AM 85.4°F29.7°C 28.9°F-1.7°C 13% 2.3 mph N3.7 kmh N 2.3 mph3.7 kmh 29.81 in1009.5 mb - 0.00 in0.0 mm 0.00 in0.0 mm
07:05 AM 86.1°F30.1°C 29.5°F-1.4°C 13% 3.5 mph N5.6 kmh N 3.5 mph5.6 kmh 29.81 in1009.5 mb - 0.00 in0.0 mm 0.00 in0.0 mm
07:10 AM 86.7°F30.4°C 30.0°F-1.1°C 13% 2.3 mph NNE3.7 kmh NNE 2.3 mph3.7 kmh 29.82 in1009.8 mb - 0.00 in0.0 mm 0.00 in0.0 mm
07:15 AM 87.4°F30.8°C 30.5°F-0.8°C 13% 2.3 mph NE3.7 kmh NE 2.3 mph3.7 kmh 29.82 in1009.8 mb - 0.00 in0.0 mm 0.00 in0.0 mm
07:20 AM 88.2°F31.2°C 31.2°F-0.4°C 13% 2.3 mph N3.7 kmh N 3.5 mph5.6 kmh 29.82 in1009.8 mb - 0.00 in0.0 mm 0.00 in0.0 mm
07:25 AM 88.7°F31.5°C 31.5°F-0.3°C 13% 2.3 mph N3.7 kmh N 2.3 mph3.7 kmh 29.82 in1009.8 mb - 0.00 in0.0 mm 0.00 in0.0 mm
07:30 AM 89.8°F32.1°C 30.4°F-0.9°C 12% 3.5 mph N5.6 kmh N 3.5 mph5.6 kmh 29.82 in1009.8 mb - 0.00 in0.0 mm 0.00 in0.0 mm
07:35 AM 90.5°F32.5°C 30.9°F-0.6°C 12% 1.2 mph NE1.9 kmh NE 1.2 mph1.9 kmh 29.82 in1009.8 mb - 0.00 in0.0 mm 0.00 in0.0 mm
07:40 AM 90.6°F32.6°C 34.9°F1.6°C 14% Calm Calm -- 29.82 in1009.8 mb - 0.00 in0.0 mm 0.00 in0.0 mm
07:45 AM 91.4°F33.0°C 35.5°F1.9°C 14% Calm Calm -- 29.82 in1009.8 mb - 0.00 in0.0 mm 0.00 in0.0 mm
07:50 AM 94.3°F34.6°C 33.9°F1.1°C 12% Calm Calm -- 29.82 in1009.8 mb - 0.00 in0.0 mm 0.00 in0.0 mm
07:55 AM 94.0°F34.4°C 35.7°F2.1°C 13% Calm Calm -- 29.82 in1009.8 mb - 0.00 in0.0 mm 0.00 in0.0 mm
08:00 AM 95.2°F35.1°C 36.6°F2.6°C 13% Calm Calm -- 29.82 in1009.8 mb - 0.00 in0.0 mm 0.00 in0.0 mm
08:05 AM 94.9°F34.9°C 36.4°F2.4°C 13% 1.2 mph SW1.9 kmh SW 1.2 mph1.9 kmh 29.82 in1009.8 mb - 0.00 in0.0 mm 0.00 in0.0 mm
08:10 AM 94.4°F34.7°C 37.9°F3.3°C 14% 1.2 mph S1.9 kmh S 3.5 mph5.6 kmh 29.82 in1009.8 mb - 0.00 in0.0 mm 0.00 in0.0 mm
08:15 AM 94.7°F34.8°C 38.1°F3.4°C 14% 2.3 mph WSW3.7 kmh WSW 2.3 mph3.7 kmh 29.82 in1009.8 mb - 0.00 in0.0 mm 0.00 in0.0 mm
08:20 AM 94.8°F34.9°C 38.1°F3.4°C 14% 2.3 mph S3.7 kmh S 2.3 mph3.7 kmh 29.82 in1009.8 mb - 0.00 in0.0 mm 0.00 in0.0 mm
08:25 AM 94.8°F34.9°C 38.2°F3.4°C 14% 2.3 mph S3.7 kmh S 2.3 mph3.7 kmh 29.82 in1009.8 mb - 0.00 in0.0 mm 0.00 in0.0 mm
08:30 AM 95.8°F35.4°C 39.0°F3.9°C 14% Calm Calm -- 29.82 in1009.8 mb - 0.00 in0.0 mm 0.00 in0.0 mm
08:35 AM 96.7°F35.9°C 39.7°F4.3°C 14% Calm Calm -- 29.81 in1009.5 mb - 0.00 in0.0 mm 0.00 in0.0 mm
08:40 AM 97.2°F36.2°C 40.1°F4.5°C 14% Calm Calm -- 29.81 in1009.5 mb - 0.00 in0.0 mm 0.00 in0.0 mm
08:45 AM 96.7°F35.9°C 39.7°F4.3°C 14% 2.3 mph S3.7 kmh S 2.3 mph3.7 kmh 29.81 in1009.5 mb - 0.00 in0.0 mm 0.00 in0.0 mm
08:50 AM 96.4°F35.8°C 39.5°F4.2°C 14% 2.3 mph SSW3.7 kmh SSW 2.3 mph3.7 kmh 29.81 in1009.5 mb - 0.00 in0.0 mm 0.00 in0.0 mm
08:55 AM 96.6°F35.9°C 37.7°F3.2°C 13% 1.2 mph SSW1.9 kmh SSW 1.2 mph1.9 kmh 29.81 in1009.5 mb - 0.00 in0.0 mm 0.00 in0.0 mm
09:00 AM 96.3°F35.7°C 39.4°F4.1°C 14% 2.3 mph S3.7 kmh S 2.3 mph3.7 kmh 29.81 in1009.5 mb - 0.00 in0.0 mm 0.00 in0.0 mm
09:05 AM 96.5°F35.8°C 39.5°F4.2°C 14% 3.5 mph SSW5.6 kmh SSW 3.5 mph5.6 kmh 29.81 in1009.5 mb - 0.00 in0.0 mm 0.00 in0.0 mm
09:10 AM 97.7°F36.5°C 40.5°F4.7°C 14% 2.3 mph SW3.7 kmh SW 3.5 mph5.6 kmh 29.81 in1009.5 mb - 0.00 in0.0 mm 0.00 in0.0 mm
09:15 AM 97.4°F36.3°C 40.2°F4.6°C 14% 2.3 mph SW3.7 kmh SW 3.5 mph5.6 kmh 29.81 in1009.5 mb - 0.00 in0.0 mm 0.00 in0.0 mm
09:20 AM 98.5°F36.9°C 39.2°F4.0°C 13% 2.3 mph SSE3.7 kmh SSE 2.3 mph3.7 kmh 29.81 in1009.5 mb - 0.00 in0.0 mm 0.00 in0.0 mm
09:25 AM 97.9°F36.6°C 36.7°F2.6°C 12% 4.6 mph SW7.4 kmh SW 5.8 mph9.3 kmh 29.81 in1009.5 mb - 0.00 in0.0 mm 0.00 in0.0 mm
09:30 AM 98.4°F36.9°C 37.1°F2.8°C 12% 4.6 mph SE7.4 kmh SE 5.8 mph9.3 kmh 29.81 in1009.5 mb - 0.00 in0.0 mm 0.00 in0.0 mm
09:35 AM 99.0°F37.2°C 37.5°F3.1°C 12% 2.3 mph WNW3.7 kmh WNW 2.3 mph3.7 kmh 29.81 in1009.5 mb - 0.00 in0.0 mm 0.00 in0.0 mm
09:40 AM 98.9°F37.2°C 35.3°F1.8°C 11% 4.6 mph SSW7.4 kmh SSW 5.8 mph9.3 kmh 29.81 in1009.5 mb - 0.00 in0.0 mm 0.00 in0.0 mm
09:45 AM 98.6°F37.0°C 37.2°F2.9°C 12% 3.5 mph SE5.6 kmh SE 4.6 mph7.4 kmh 29.80 in1009.1 mb - 0.00 in0.0 mm 0.00 in0.0 mm
09:50 AM 99.5°F37.5°C 37.9°F3.3°C 12% 2.3 mph S3.7 kmh S 3.5 mph5.6 kmh 29.80 in1009.1 mb - 0.00 in0.0 mm 0.00 in0.0 mm
09:55 AM 99.3°F37.4°C 33.2°F0.7°C 10% 3.5 mph SSW5.6 kmh SSW 5.8 mph9.3 kmh 29.80 in1009.1 mb - 0.00 in0.0 mm 0.00 in0.0 mm
10:00 AM 99.2°F37.3°C 33.1°F0.6°C 10% 3.5 mph SSW5.6 kmh SSW 3.5 mph5.6 kmh 29.80 in1009.1 mb - 0.00 in0.0 mm 0.00 in0.0 mm
10:05 AM 100.8°F38.2°C 36.6°F2.6°C 11% 3.5 mph SE5.6 kmh SE 4.6 mph7.4 kmh 29.80 in1009.1 mb - 0.00 in0.0 mm 0.00 in0.0 mm
10:10 AM 100.4°F38.0°C 36.4°F2.4°C 11% 2.3 mph SSW3.7 kmh SSW 2.3 mph3.7 kmh 29.80 in1009.1 mb - 0.00 in0.0 mm 0.00 in0.0 mm
10:15 AM 100.7°F38.2°C 36.6°F2.6°C 11% 3.5 mph NE5.6 kmh NE 3.5 mph5.6 kmh 29.80 in1009.1 mb - 0.00 in0.0 mm 0.00 in0.0 mm
10:20 AM 100.7°F38.2°C 36.6°F2.6°C 11% 4.6 mph SSW7.4 kmh SSW 4.6 mph7.4 kmh 29.80 in1009.1 mb - 0.00 in0.0 mm 0.00 in0.0 mm
10:25 AM 100.8°F38.2°C 36.7°F2.6°C 11% 2.3 mph S3.7 kmh S 3.5 mph5.6 kmh 29.80 in1009.1 mb - 0.00 in0.0 mm 0.00 in0.0 mm
10:30 AM 100.9°F38.3°C 36.7°F2.6°C 11% 4.6 mph WSW7.4 kmh WSW 4.6 mph7.4 kmh 29.80 in1009.1 mb - 0.00 in0.0 mm 0.00 in0.0 mm
10:35 AM 101.7°F38.7°C 37.4°F3.0°C 11% 2.3 mph SSW3.7 kmh SSW 5.8 mph9.3 kmh 29.80 in1009.1 mb - 0.00 in0.0 mm 0.00 in0.0 mm
10:40 AM 102.6°F39.2°C 38.1°F3.4°C 11% 4.6 mph S7.4 kmh S 5.8 mph9.3 kmh 29.80 in1009.1 mb - 0.00 in0.0 mm 0.00 in0.0 mm
10:45 AM 101.5°F38.6°C 37.2°F2.9°C 11% 3.5 mph SSW5.6 kmh SSW 6.9 mph11.1 kmh 29.80 in1009.1 mb - 0.00 in0.0 mm 0.00 in0.0 mm
10:50 AM 101.7°F38.7°C 37.4°F3.0°C 11% 2.3 mph S3.7 kmh S 3.5 mph5.6 kmh 29.80 in1009.1 mb - 0.00 in0.0 mm 0.00 in0.0 mm
10:55 AM 102.6°F39.2°C 38.0°F3.3°C 11% 4.6 mph S7.4 kmh S 5.8 mph9.3 kmh 29.80 in1009.1 mb - 0.00 in0.0 mm 0.00 in0.0 mm
11:00 AM 102.1°F38.9°C 37.7°F3.2°C 11% 1.2 mph W1.9 kmh W 1.2 mph1.9 kmh 29.80 in1009.1 mb - 0.00 in0.0 mm 0.00 in0.0 mm
11:05 AM 102.6°F39.2°C 38.1°F3.4°C 11% 4.6 mph SSW7.4 kmh SSW 4.6 mph7.4 kmh 29.80 in1009.1 mb - 0.00 in0.0 mm 0.00 in0.0 mm
11:10 AM 102.7°F39.3°C 38.1°F3.4°C 11% 5.8 mph SSE9.3 kmh SSE 5.8 mph9.3 kmh 29.79 in1008.8 mb - 0.00 in0.0 mm 0.00 in0.0 mm
11:15 AM 103.3°F39.6°C 38.6°F3.7°C 11% 5.8 mph SE9.3 kmh SE 5.8 mph9.3 kmh 29.79 in1008.8 mb - 0.00 in0.0 mm 0.00 in0.0 mm
11:20 AM 104.0°F40.0°C 39.1°F3.9°C 11% 4.6 mph S7.4 kmh S 5.8 mph9.3 kmh 29.79 in1008.8 mb - 0.00 in0.0 mm 0.00 in0.0 mm
11:25 AM 102.6°F39.2°C 38.0°F3.3°C 11% 3.5 mph SSW5.6 kmh SSW 3.5 mph5.6 kmh 29.79 in1008.8 mb - 0.00 in0.0 mm 0.00 in0.0 mm
11:30 AM 103.7°F39.8°C 38.9°F3.8°C 11% 3.5 mph S5.6 kmh S 3.5 mph5.6 kmh 29.79 in1008.8 mb - 0.00 in0.0 mm 0.00 in0.0 mm
11:35 AM 103.8°F39.9°C 39.0°F3.9°C 11% 2.3 mph S3.7 kmh S 3.5 mph5.6 kmh 29.79 in1008.8 mb - 0.00 in0.0 mm 0.00 in0.0 mm
11:40 AM 104.4°F40.2°C 39.4°F4.1°C 11% 4.6 mph SSW7.4 kmh SSW 4.6 mph7.4 kmh 29.79 in1008.8 mb - 0.00 in0.0 mm 0.00 in0.0 mm
11:45 AM 104.0°F40.0°C 36.7°F2.6°C 10% 2.3 mph SW3.7 kmh SW 4.6 mph7.4 kmh 29.79 in1008.8 mb - 0.00 in0.0 mm 0.00 in0.0 mm
11:50 AM 104.5°F40.3°C 37.0°F2.8°C 10% 4.6 mph SSE7.4 kmh SSE 5.8 mph9.3 kmh 29.79 in1008.8 mb - 0.00 in0.0 mm 0.00 in0.0 mm
11:55 AM 104.4°F40.2°C 37.0°F2.8°C 10% 3.5 mph SE5.6 kmh SE 5.8 mph9.3 kmh 29.79 in1008.8 mb - 0.00 in0.0 mm 0.00 in0.0 mm
12:00 PM 104.9°F40.5°C 39.8°F4.3°C 11% 3.5 mph SSW5.6 kmh SSW 5.8 mph9.3 kmh 29.79 in1008.8 mb - 0.00 in0.0 mm 0.00 in0.0 mm
12:05 PM 104.8°F40.4°C 39.7°F4.3°C 11% 2.3 mph SW3.7 kmh SW 5.8 mph9.3 kmh 29.79 in1008.8 mb - 0.00 in0.0 mm 0.00 in0.0 mm
12:10 PM 104.9°F40.5°C 39.8°F4.3°C 11% Calm Calm 2.3 mph3.7 kmh 29.78 in1008.5 mb - 0.00 in0.0 mm 0.00 in0.0 mm
12:15 PM 104.8°F40.4°C 37.3°F2.9°C 10% 2.3 mph SE3.7 kmh SE 3.5 mph5.6 kmh 29.78 in1008.5 mb - 0.00 in0.0 mm 0.00 in0.0 mm
12:20 PM 104.5°F40.3°C 39.5°F4.2°C 11% Calm Calm 1.2 mph1.9 kmh 29.78 in1008.5 mb - 0.00 in0.0 mm 0.00 in0.0 mm
12:25 PM 106.3°F41.3°C 38.4°F3.6°C 10% 4.6 mph S7.4 kmh S 5.8 mph9.3 kmh 29.78 in1008.5 mb - 0.00 in0.0 mm 0.00 in0.0 mm
12:30 PM 105.4°F40.8°C 37.7°F3.2°C 10% 2.3 mph S3.7 kmh S 5.8 mph9.3 kmh 29.78 in1008.5 mb - 0.00 in0.0 mm 0.00 in0.0 mm
12:35 PM 106.2°F41.2°C 38.3°F3.5°C 10% 5.8 mph SW9.3 kmh SW 8.1 mph13.0 kmh 29.77 in1008.1 mb - 0.00 in0.0 mm 0.00 in0.0 mm
12:40 PM 106.9°F41.6°C 38.9°F3.8°C 10% 3.5 mph SW5.6 kmh SW 4.6 mph7.4 kmh 29.77 in1008.1 mb - 0.00 in0.0 mm 0.00 in0.0 mm
12:45 PM 107.0°F41.7°C 38.9°F3.8°C 10% 3.5 mph S5.6 kmh S 5.8 mph9.3 kmh 29.77 in1008.1 mb - 0.00 in0.0 mm 0.00 in0.0 mm
12:50 PM 107.6°F42.0°C 39.4°F4.1°C 10% 4.6 mph SSW7.4 kmh SSW 6.9 mph11.1 kmh 29.77 in1008.1 mb - 0.00 in0.0 mm 0.00 in0.0 mm
12:55 PM 107.5°F41.9°C 39.4°F4.1°C 10% 4.6 mph S7.4 kmh S 5.8 mph9.3 kmh 29.77 in1008.1 mb - 0.00 in0.0 mm 0.00 in0.0 mm
01:00 PM 108.2°F42.3°C 39.8°F4.3°C 10% 3.5 mph S5.6 kmh S 4.6 mph7.4 kmh 29.77 in1008.1 mb - 0.00 in0.0 mm 0.00 in0.0 mm
01:05 PM 106.3°F41.3°C 38.4°F3.6°C 10% 2.3 mph S3.7 kmh S 2.3 mph3.7 kmh 29.77 in1008.1 mb - 0.00 in0.0 mm 0.00 in0.0 mm
01:10 PM 107.7°F42.1°C 39.5°F4.2°C 10% 4.6 mph S7.4 kmh S 4.6 mph7.4 kmh 29.76 in1007.8 mb - 0.00 in0.0 mm 0.00 in0.0 mm
01:15 PM 108.9°F42.7°C 40.4°F4.7°C 10% 1.2 mph SE1.9 kmh SE 1.2 mph1.9 kmh 29.76 in1007.8 mb - 0.00 in0.0 mm 0.00 in0.0 mm
01:20 PM 108.7°F42.6°C 40.2°F4.6°C 10% 3.5 mph SW5.6 kmh SW 4.6 mph7.4 kmh 29.76 in1007.8 mb - 0.00 in0.0 mm 0.00 in0.0 mm
01:25 PM 108.0°F42.2°C 39.7°F4.3°C 10% 5.8 mph SSW9.3 kmh SSW 6.9 mph11.1 kmh 29.76 in1007.8 mb - 0.00 in0.0 mm 0.00 in0.0 mm
01:30 PM 107.7°F42.1°C 39.5°F4.2°C 10% 4.6 mph S7.4 kmh S 5.8 mph9.3 kmh 29.76 in1007.8 mb - 0.00 in0.0 mm 0.00 in0.0 mm
01:35 PM 108.2°F42.3°C 39.8°F4.3°C 10% 4.6 mph SSE7.4 kmh SSE 8.1 mph13.0 kmh 29.75 in1007.5 mb - 0.00 in0.0 mm 0.00 in0.0 mm
01:40 PM 107.4°F41.9°C 39.2°F4.0°C 10% 4.6 mph SSW7.4 kmh SSW 4.6 mph7.4 kmh 29.75 in1007.5 mb - 0.00 in0.0 mm 0.00 in0.0 mm
01:45 PM 109.0°F42.8°C 40.4°F4.7°C 10% 5.8 mph S9.3 kmh S 9.2 mph14.8 kmh 29.75 in1007.5 mb - 0.00 in0.0 mm 0.00 in0.0 mm
01:50 PM 108.2°F42.3°C 39.9°F4.4°C 10% 5.8 mph SW9.3 kmh SW 6.9 mph11.1 kmh 29.75 in1007.5 mb - 0.00 in0.0 mm 0.00 in0.0 mm
01:55 PM 108.4°F42.4°C 40.0°F4.4°C 10% 5.8 mph E9.3 kmh E 6.9 mph11.1 kmh 29.74 in1007.1 mb - 0.00 in0.0 mm 0.00 in0.0 mm
02:00 PM 110.1°F43.4°C 41.3°F5.2°C 10% 5.8 mph S9.3 kmh S 5.8 mph9.3 kmh 29.74 in1007.1 mb - 0.00 in0.0 mm 0.00 in0.0 mm
02:05 PM 110.1°F43.4°C 41.3°F5.2°C 10% 5.8 mph S9.3 kmh S 5.8 mph9.3 kmh 29.74 in1007.1 mb - 0.00 in0.0 mm 0.00 in0.0 mm
02:10 PM 109.2°F42.9°C 40.6°F4.8°C 10% 3.5 mph SSW5.6 kmh SSW 8.1 mph13.0 kmh 29.74 in1007.1 mb - 0.00 in0.0 mm 0.00 in0.0 mm
02:15 PM 109.9°F43.3°C 41.2°F5.1°C 10% 4.6 mph SSW7.4 kmh SSW 5.8 mph9.3 kmh 29.74 in1007.1 mb - 0.00 in0.0 mm 0.00 in0.0 mm
02:20 PM 111.1°F43.9°C 42.0°F5.6°C 10% 5.8 mph SW9.3 kmh SW 5.8 mph9.3 kmh 29.73 in1006.8 mb - 0.00 in0.0 mm 0.00 in0.0 mm
02:25 PM 110.6°F43.7°C 41.6°F5.3°C 10% 4.6 mph SSW7.4 kmh SSW 6.9 mph11.1 kmh 29.73 in1006.8 mb - 0.00 in0.0 mm 0.00 in0.0 mm
02:30 PM 110.0°F43.3°C 41.2°F5.1°C 10% 4.6 mph SSE7.4 kmh SSE 4.6 mph7.4 kmh 29.73 in1006.8 mb - 0.00 in0.0 mm 0.00 in0.0 mm
02:35 PM 109.8°F43.2°C 41.0°F5.0°C 10% 6.9 mph SSW11.1 kmh SSW 6.9 mph11.1 kmh 29.73 in1006.8 mb - 0.00 in0.0 mm 0.00 in0.0 mm
02:40 PM 110.2°F43.4°C 41.4°F5.2°C 10% 4.6 mph SW7.4 kmh SW 5.8 mph9.3 kmh 29.73 in1006.8 mb - 0.00 in0.0 mm 0.00 in0.0 mm
02:45 PM 110.7°F43.7°C 41.8°F5.4°C 10% 4.6 mph SSW7.4 kmh SSW 5.8 mph9.3 kmh 29.73 in1006.8 mb - 0.00 in0.0 mm 0.00 in0.0 mm
02:50 PM 111.1°F43.9°C 42.0°F5.6°C 10% 6.9 mph WSW11.1 kmh WSW 12.7 mph20.4 kmh 29.73 in1006.8 mb - 0.00 in0.0 mm 0.00 in0.0 mm
02:55 PM 110.2°F43.4°C 41.4°F5.2°C 10% 5.8 mph S9.3 kmh S 9.2 mph14.8 kmh 29.73 in1006.8 mb - 0.00 in0.0 mm 0.00 in0.0 mm
03:00 PM 111.4°F44.1°C 42.3°F5.7°C 10% 4.6 mph S7.4 kmh S 8.1 mph13.0 kmh 29.73 in1006.8 mb - 0.00 in0.0 mm 0.00 in0.0 mm
03:05 PM 110.5°F43.6°C 41.6°F5.3°C 10% 1.2 mph S1.9 kmh S 2.3 mph3.7 kmh 29.73 in1006.8 mb - 0.00 in0.0 mm 0.00 in0.0 mm
03:10 PM 111.1°F43.9°C 42.0°F5.6°C 10% 5.8 mph SW9.3 kmh SW 9.2 mph14.8 kmh 29.72 in1006.4 mb - 0.00 in0.0 mm 0.00 in0.0 mm
03:15 PM 110.7°F43.7°C 41.8°F5.4°C 10% 5.8 mph SW9.3 kmh SW 5.8 mph9.3 kmh 29.72 in1006.4 mb - 0.00 in0.0 mm 0.00 in0.0 mm
03:20 PM 110.4°F43.6°C 41.5°F5.3°C 10% 8.1 mph SSW13.0 kmh SSW 9.2 mph14.8 kmh 29.72 in1006.4 mb - 0.00 in0.0 mm 0.00 in0.0 mm
03:25 PM 110.5°F43.6°C 41.6°F5.3°C 10% 6.9 mph SSW11.1 kmh SSW 8.1 mph13.0 kmh 29.72 in1006.4 mb - 0.00 in0.0 mm 0.00 in0.0 mm
03:30 PM 110.2°F43.4°C 41.4°F5.2°C 10% 6.9 mph SE11.1 kmh SE 8.1 mph13.0 kmh 29.72 in1006.4 mb - 0.00 in0.0 mm 0.00 in0.0 mm
03:35 PM 110.8°F43.8°C 41.8°F5.4°C 10% 3.5 mph NE5.6 kmh NE 4.6 mph7.4 kmh 29.71 in1006.1 mb - 0.00 in0.0 mm 0.00 in0.0 mm
03:40 PM 111.2°F44.0°C 42.1°F5.6°C 10% 6.9 mph SSW11.1 kmh SSW 8.1 mph13.0 kmh 29.71 in1006.1 mb - 0.00 in0.0 mm 0.00 in0.0 mm
03:45 PM 110.5°F43.6°C 41.6°F5.3°C 10% 5.8 mph S9.3 kmh S 5.8 mph9.3 kmh 29.71 in1006.1 mb - 0.00 in0.0 mm 0.00 in0.0 mm
03:50 PM 110.6°F43.7°C 41.7°F5.4°C 10% 8.1 mph SW13.0 kmh SW 10.4 mph16.7 kmh 29.71 in1006.1 mb - 0.00 in0.0 mm 0.00 in0.0 mm
03:55 PM 110.7°F43.7°C 41.7°F5.4°C 10% 4.6 mph SW7.4 kmh SW 8.1 mph13.0 kmh 29.70 in1005.8 mb - 0.00 in0.0 mm 0.00 in0.0 mm
04:00 PM 110.9°F43.8°C 41.9°F5.5°C 10% 3.5 mph S5.6 kmh S 3.5 mph5.6 kmh 29.70 in1005.8 mb - 0.00 in0.0 mm 0.00 in0.0 mm
04:05 PM 111.3°F44.1°C 42.2°F5.7°C 10% 8.1 mph WSW13.0 kmh WSW 10.4 mph16.7 kmh 29.70 in1005.8 mb - 0.00 in0.0 mm 0.00 in0.0 mm
04:10 PM 111.5°F44.2°C 42.3°F5.7°C 10% 6.9 mph SW11.1 kmh SW 5.8 mph9.3 kmh 29.70 in1005.8 mb - 0.00 in0.0 mm 0.00 in0.0 mm
04:15 PM 111.6°F44.2°C 42.4°F5.8°C 10% 4.6 mph SSW7.4 kmh SSW 6.9 mph11.1 kmh 29.70 in1005.8 mb - 0.00 in0.0 mm 0.00 in0.0 mm
04:20 PM 111.1°F43.9°C 42.0°F5.6°C 10% 2.3 mph NNW3.7 kmh NNW 5.8 mph9.3 kmh 29.69 in1005.4 mb - 0.00 in0.0 mm 0.00 in0.0 mm
04:25 PM 111.3°F44.1°C 42.2°F5.7°C 10% 5.8 mph S9.3 kmh S 9.2 mph14.8 kmh 29.69 in1005.4 mb - 0.00 in0.0 mm 0.00 in0.0 mm
04:30 PM 111.4°F44.1°C 42.3°F5.7°C 10% 3.5 mph SSW5.6 kmh SSW 3.5 mph5.6 kmh 29.69 in1005.4 mb - 0.00 in0.0 mm 0.00 in0.0 mm
04:35 PM 111.3°F44.1°C 42.2°F5.7°C 10% 4.6 mph SE7.4 kmh SE 8.1 mph13.0 kmh 29.69 in1005.4 mb - 0.00 in0.0 mm 0.00 in0.0 mm
04:40 PM 110.9°F43.8°C 41.8°F5.4°C 10% 4.6 mph SW7.4 kmh SW 5.8 mph9.3 kmh 29.69 in1005.4 mb - 0.00 in0.0 mm 0.00 in0.0 mm
04:45 PM 110.6°F43.7°C 41.7°F5.4°C 10% 6.9 mph SSW11.1 kmh SSW 6.9 mph11.1 kmh 29.68 in1005.1 mb - 0.00 in0.0 mm 0.00 in0.0 mm
04:50 PM 111.4°F44.1°C 42.3°F5.7°C 10% 6.9 mph WSW11.1 kmh WSW 5.8 mph9.3 kmh 29.68 in1005.1 mb - 0.00 in0.0 mm 0.00 in0.0 mm
04:55 PM 110.8°F43.8°C 41.8°F5.4°C 10% 5.8 mph SW9.3 kmh SW 8.1 mph13.0 kmh 29.68 in1005.1 mb - 0.00 in0.0 mm 0.00 in0.0 mm
05:00 PM 111.2°F44.0°C 42.1°F5.6°C 10% 6.9 mph SE11.1 kmh SE 8.1 mph13.0 kmh 29.68 in1005.1 mb - 0.00 in0.0 mm 0.00 in0.0 mm
05:05 PM 110.6°F43.7°C 41.6°F5.3°C 10% 5.8 mph S9.3 kmh S 9.2 mph14.8 kmh 29.68 in1005.1 mb - 0.00 in0.0 mm 0.00 in0.0 mm
05:10 PM 110.8°F43.8°C 41.8°F5.4°C 10% 4.6 mph S7.4 kmh S 5.8 mph9.3 kmh 29.68 in1005.1 mb - 0.00 in0.0 mm 0.00 in0.0 mm
05:15 PM 110.5°F43.6°C 41.6°F5.3°C 10% 5.8 mph SSW9.3 kmh SSW 6.9 mph11.1 kmh 29.68 in1005.1 mb - 0.00 in0.0 mm 0.00 in0.0 mm
05:20 PM 110.3°F43.5°C 41.4°F5.2°C 10% 6.9 mph S11.1 kmh S 10.4 mph16.7 kmh 29.68 in1005.1 mb - 0.00 in0.0 mm 0.00 in0.0 mm
05:25 PM 110.4°F43.6°C 41.5°F5.3°C 10% 3.5 mph SW5.6 kmh SW 3.5 mph5.6 kmh 29.68 in1005.1 mb - 0.00 in0.0 mm 0.00 in0.0 mm
05:30 PM 110.1°F43.4°C 41.3°F5.2°C 10% 5.8 mph E9.3 kmh E 6.9 mph11.1 kmh 29.68 in1005.1 mb - 0.00 in0.0 mm 0.00 in0.0 mm
05:35 PM 109.9°F43.3°C 41.1°F5.1°C 10% 4.6 mph SW7.4 kmh SW 8.1 mph13.0 kmh 29.67 in1004.7 mb - 0.00 in0.0 mm 0.00 in0.0 mm
05:40 PM 109.9°F43.3°C 41.1°F5.1°C 10% 5.8 mph SSW9.3 kmh SSW 6.9 mph11.1 kmh 29.67 in1004.7 mb - 0.00 in0.0 mm 0.00 in0.0 mm
05:45 PM 109.8°F43.2°C 41.1°F5.1°C 10% 5.8 mph SSE9.3 kmh SSE 5.8 mph9.3 kmh 29.67 in1004.7 mb - 0.00 in0.0 mm 0.00 in0.0 mm
05:50 PM 109.6°F43.1°C 40.9°F4.9°C 10% 4.6 mph SSE7.4 kmh SSE 5.8 mph9.3 kmh 29.67 in1004.7 mb - 0.00 in0.0 mm 0.00 in0.0 mm
05:55 PM 109.6°F43.1°C 40.9°F4.9°C 10% 5.8 mph SSW9.3 kmh SSW 6.9 mph11.1 kmh 29.67 in1004.7 mb - 0.00 in0.0 mm 0.00 in0.0 mm
06:00 PM 109.4°F43.0°C 40.8°F4.9°C 10% 4.6 mph SE7.4 kmh SE 5.8 mph9.3 kmh 29.67 in1004.7 mb - 0.00 in0.0 mm 0.00 in0.0 mm
06:05 PM 109.4°F43.0°C 40.8°F4.9°C 10% 5.8 mph SW9.3 kmh SW 6.9 mph11.1 kmh 29.67 in1004.7 mb - 0.00 in0.0 mm 0.00 in0.0 mm
06:10 PM 109.0°F42.8°C 40.5°F4.7°C 10% 6.9 mph SSW11.1 kmh SSW 5.8 mph9.3 kmh 29.67 in1004.7 mb - 0.00 in0.0 mm 0.00 in0.0 mm
06:15 PM 109.0°F42.8°C 40.5°F4.7°C 10% 4.6 mph SW7.4 kmh SW 4.6 mph7.4 kmh 29.67 in1004.7 mb - 0.00 in0.0 mm 0.00 in0.0 mm
06:20 PM 109.0°F42.8°C 40.5°F4.7°C 10% 4.6 mph SSE7.4 kmh SSE 5.8 mph9.3 kmh 29.67 in1004.7 mb - 0.00 in0.0 mm 0.00 in0.0 mm
06:25 PM 108.9°F42.7°C 40.4°F4.7°C 10% 4.6 mph S7.4 kmh S 5.8 mph9.3 kmh 29.67 in1004.7 mb - 0.00 in0.0 mm 0.00 in0.0 mm
06:30 PM 108.7°F42.6°C 40.2°F4.6°C 10% 6.9 mph NE11.1 kmh NE 8.1 mph13.0 kmh 29.67 in1004.7 mb - 0.00 in0.0 mm 0.00 in0.0 mm
06:35 PM 108.5°F42.5°C 40.1°F4.5°C 10% 6.9 mph WSW11.1 kmh WSW 8.1 mph13.0 kmh 29.68 in1005.1 mb - 0.00 in0.0 mm 0.00 in0.0 mm
06:40 PM 108.3°F42.4°C 39.9°F4.4°C 10% 5.8 mph SW9.3 kmh SW 9.2 mph14.8 kmh 29.68 in1005.1 mb - 0.00 in0.0 mm 0.00 in0.0 mm
06:45 PM 108.1°F42.3°C 39.8°F4.3°C 10% 4.6 mph SW7.4 kmh SW 5.8 mph9.3 kmh 29.68 in1005.1 mb - 0.00 in0.0 mm 0.00 in0.0 mm
06:50 PM 108.0°F42.2°C 39.7°F4.3°C 10% 4.6 mph NNW7.4 kmh NNW 5.8 mph9.3 kmh 29.68 in1005.1 mb - 0.00 in0.0 mm 0.00 in0.0 mm
06:55 PM 107.7°F42.1°C 39.5°F4.2°C 10% 4.6 mph SW7.4 kmh SW 5.8 mph9.3 kmh 29.68 in1005.1 mb - 0.00 in0.0 mm 0.00 in0.0 mm
07:00 PM 107.4°F41.9°C 39.2°F4.0°C 10% 3.5 mph WNW5.6 kmh WNW 5.8 mph9.3 kmh 29.68 in1005.1 mb - 0.00 in0.0 mm 0.00 in0.0 mm
07:05 PM 107.2°F41.8°C 39.1°F3.9°C 10% 4.6 mph S7.4 kmh S 9.2 mph14.8 kmh 29.68 in1005.1 mb - 0.00 in0.0 mm 0.00 in0.0 mm
07:10 PM 107.1°F41.7°C 39.0°F3.9°C 10% 4.6 mph SSW7.4 kmh SSW 5.8 mph9.3 kmh 29.68 in1005.1 mb - 0.00 in0.0 mm 0.00 in0.0 mm
07:15 PM 106.7°F41.5°C 38.7°F3.7°C 10% 3.5 mph SSW5.6 kmh SSW 5.8 mph9.3 kmh 29.68 in1005.1 mb - 0.00 in0.0 mm 0.00 in0.0 mm
07:20 PM 106.3°F41.3°C 38.4°F3.6°C 10% 5.8 mph S9.3 kmh S 5.8 mph9.3 kmh 29.68 in1005.1 mb - 0.00 in0.0 mm 0.00 in0.0 mm
07:25 PM 106.0°F41.1°C 38.2°F3.4°C 10% 5.8 mph WSW9.3 kmh WSW 5.8 mph9.3 kmh 29.68 in1005.1 mb - 0.00 in0.0 mm 0.00 in0.0 mm
07:30 PM 106.0°F41.1°C 38.2°F3.4°C 10% 5.8 mph WSW9.3 kmh WSW 5.8 mph9.3 kmh 29.68 in1005.1 mb - 0.00 in0.0 mm 0.00 in0.0 mm
07:35 PM 105.1°F40.6°C 37.5°F3.1°C 10% 3.5 mph SW5.6 kmh SW 3.5 mph5.6 kmh 29.68 in1005.1 mb - 0.00 in0.0 mm 0.00 in0.0 mm
07:40 PM 104.7°F40.4°C 37.2°F2.9°C 10% 4.6 mph S7.4 kmh S 4.6 mph7.4 kmh 29.68 in1005.1 mb - 0.00 in0.0 mm 0.00 in0.0 mm
07:45 PM 104.2°F40.1°C 36.9°F2.7°C 10% 3.5 mph SSW5.6 kmh SSW 4.6 mph7.4 kmh 29.69 in1005.4 mb - 0.00 in0.0 mm 0.00 in0.0 mm
07:50 PM 103.8°F39.9°C 36.5°F2.5°C 10% 2.3 mph SSE3.7 kmh SSE 3.5 mph5.6 kmh 29.69 in1005.4 mb - 0.00 in0.0 mm 0.00 in0.0 mm
07:55 PM 103.3°F39.6°C 36.2°F2.3°C 10% 3.5 mph SSE5.6 kmh SSE 4.6 mph7.4 kmh 29.69 in1005.4 mb - 0.00 in0.0 mm 0.00 in0.0 mm
08:00 PM 102.9°F39.4°C 35.9°F2.2°C 10% 3.5 mph S5.6 kmh S 3.5 mph5.6 kmh 29.69 in1005.4 mb - 0.00 in0.0 mm 0.00 in0.0 mm
08:05 PM 102.6°F39.2°C 35.6°F2.0°C 10% 2.3 mph S3.7 kmh S 2.3 mph3.7 kmh 29.69 in1005.4 mb - 0.00 in0.0 mm 0.00 in0.0 mm
08:10 PM 102.2°F39.0°C 35.3°F1.8°C 10% 2.3 mph SE3.7 kmh SE 2.3 mph3.7 kmh 29.69 in1005.4 mb - 0.00 in0.0 mm 0.00 in0.0 mm
08:15 PM 101.8°F38.8°C 37.4°F3.0°C 11% 2.3 mph S3.7 kmh S 3.5 mph5.6 kmh 29.69 in1005.4 mb - 0.00 in0.0 mm 0.00 in0.0 mm
08:20 PM 101.2°F38.4°C 37.0°F2.8°C 11% 1.2 mph SSW1.9 kmh SSW 2.3 mph3.7 kmh 29.69 in1005.4 mb - 0.00 in0.0 mm 0.00 in0.0 mm
08:25 PM 100.9°F38.3°C 36.8°F2.7°C 11% 2.3 mph SSE3.7 kmh SSE 4.6 mph7.4 kmh 29.69 in1005.4 mb - 0.00 in0.0 mm 0.00 in0.0 mm
08:30 PM 100.9°F38.3°C 36.8°F2.7°C 11% 3.5 mph SW5.6 kmh SW 4.6 mph7.4 kmh 29.69 in1005.4 mb - 0.00 in0.0 mm 0.00 in0.0 mm
08:35 PM 101.1°F38.4°C 36.9°F2.7°C 11% 4.6 mph SSW7.4 kmh SSW 4.6 mph7.4 kmh 29.70 in1005.8 mb - 0.00 in0.0 mm 0.00 in0.0 mm
08:40 PM 101.3°F38.5°C 37.1°F2.8°C 11% 3.5 mph S5.6 kmh S 4.6 mph7.4 kmh 29.70 in1005.8 mb - 0.00 in0.0 mm 0.00 in0.0 mm
08:45 PM 100.9°F38.3°C 36.8°F2.7°C 11% 4.6 mph S7.4 kmh S 5.8 mph9.3 kmh 29.70 in1005.8 mb - 0.00 in0.0 mm 0.00 in0.0 mm
08:50 PM 100.8°F38.2°C 36.7°F2.6°C 11% 4.6 mph SSW7.4 kmh SSW 6.9 mph11.1 kmh 29.70 in1005.8 mb - 0.00 in0.0 mm 0.00 in0.0 mm
08:55 PM 100.8°F38.2°C 36.7°F2.6°C 11% 4.6 mph SSW7.4 kmh SSW 5.8 mph9.3 kmh 29.70 in1005.8 mb - 0.00 in0.0 mm 0.00 in0.0 mm
09:00 PM 100.2°F37.9°C 36.2°F2.3°C 11% 3.5 mph S5.6 kmh S 4.6 mph7.4 kmh 29.70 in1005.8 mb - 0.00 in0.0 mm 0.00 in0.0 mm
09:05 PM 99.8°F37.7°C 35.9°F2.2°C 11% 3.5 mph S5.6 kmh S 4.6 mph7.4 kmh 29.70 in1005.8 mb - 0.00 in0.0 mm 0.00 in0.0 mm
09:10 PM 99.3°F37.4°C 37.7°F3.2°C 12% 2.3 mph SSE3.7 kmh SSE 3.5 mph5.6 kmh 29.71 in1006.1 mb - 0.00 in0.0 mm 0.00 in0.0 mm
09:15 PM 98.6°F37.0°C 39.3°F4.1°C 13% 2.3 mph SE3.7 kmh SE 3.5 mph5.6 kmh 29.71 in1006.1 mb - 0.00 in0.0 mm 0.00 in0.0 mm
09:20 PM 98.0°F36.7°C 38.8°F3.8°C 13% Calm Calm 3.5 mph5.6 kmh 29.72 in1006.4 mb - 0.00 in0.0 mm 0.00 in0.0 mm
09:25 PM 97.4°F36.3°C 38.3°F3.5°C 13% 1.2 mph S1.9 kmh S 2.3 mph3.7 kmh 29.72 in1006.4 mb - 0.00 in0.0 mm 0.00 in0.0 mm
09:30 PM 97.0°F36.1°C 39.9°F4.4°C 14% 2.3 mph SE3.7 kmh SE 3.5 mph5.6 kmh 29.72 in1006.4 mb - 0.00 in0.0 mm 0.00 in0.0 mm
09:35 PM 96.4°F35.8°C 39.4°F4.1°C 14% 3.5 mph SSE5.6 kmh SSE 4.6 mph7.4 kmh 29.72 in1006.4 mb - 0.00 in0.0 mm 0.00 in0.0 mm
09:40 PM 96.4°F35.8°C 39.4°F4.1°C 14% 3.5 mph ESE5.6 kmh ESE 4.6 mph7.4 kmh 29.72 in1006.4 mb - 0.00 in0.0 mm 0.00 in0.0 mm
09:45 PM 96.4°F35.8°C 39.4°F4.1°C 14% 3.5 mph SW5.6 kmh SW 4.6 mph7.4 kmh 29.73 in1006.8 mb - 0.00 in0.0 mm 0.00 in0.0 mm
09:50 PM 96.3°F35.7°C 37.5°F3.1°C 13% 2.3 mph SSW3.7 kmh SSW 3.5 mph5.6 kmh 29.73 in1006.8 mb - 0.00 in0.0 mm 0.00 in0.0 mm
09:55 PM 96.4°F35.8°C 37.5°F3.1°C 13% 3.5 mph E5.6 kmh E 5.8 mph9.3 kmh 29.73 in1006.8 mb - 0.00 in0.0 mm 0.00 in0.0 mm
10:00 PM 96.8°F36.0°C 35.8°F2.1°C 12% 6.9 mph SW11.1 kmh SW 8.1 mph13.0 kmh 29.73 in1006.8 mb - 0.00 in0.0 mm 0.00 in0.0 mm
10:05 PM 96.4°F35.8°C 35.5°F1.9°C 12% 4.6 mph SW7.4 kmh SW 5.8 mph9.3 kmh 29.73 in1006.8 mb - 0.00 in0.0 mm 0.00 in0.0 mm
10:10 PM 96.3°F35.7°C 35.4°F1.9°C 12% 3.5 mph SSE5.6 kmh SSE 4.6 mph7.4 kmh 29.73 in1006.8 mb - 0.00 in0.0 mm 0.00 in0.0 mm
10:15 PM 96.3°F35.7°C 35.4°F1.9°C 12% 3.5 mph SSW5.6 kmh SSW 4.6 mph7.4 kmh 29.73 in1006.8 mb - 0.00 in0.0 mm 0.00 in0.0 mm
10:20 PM 96.1°F35.6°C 35.3°F1.8°C 12% 3.5 mph S5.6 kmh S 4.6 mph7.4 kmh 29.73 in1006.8 mb - 0.00 in0.0 mm 0.00 in0.0 mm
10:25 PM 95.9°F35.5°C 35.1°F1.7°C 12% 3.5 mph SSW5.6 kmh SSW 3.5 mph5.6 kmh 29.73 in1006.8 mb - 0.00 in0.0 mm 0.00 in0.0 mm
10:30 PM 95.7°F35.4°C 35.0°F1.7°C 12% 2.3 mph SSW3.7 kmh SSW 4.6 mph7.4 kmh 29.73 in1006.8 mb - 0.00 in0.0 mm 0.00 in0.0 mm
10:35 PM 94.9°F34.9°C 34.3°F1.3°C 12% 2.3 mph S3.7 kmh S 2.3 mph3.7 kmh 29.74 in1007.1 mb - 0.00 in0.0 mm 0.00 in0.0 mm
10:40 PM 94.4°F34.7°C 34.0°F1.1°C 12% 3.5 mph SE5.6 kmh SE 3.5 mph5.6 kmh 29.74 in1007.1 mb - 0.00 in0.0 mm 0.00 in0.0 mm
10:45 PM 93.9°F34.4°C 33.6°F0.9°C 12% 1.2 mph S1.9 kmh S 1.2 mph1.9 kmh 29.74 in1007.1 mb - 0.00 in0.0 mm 0.00 in0.0 mm
10:50 PM 93.6°F34.2°C 33.4°F0.8°C 12% 2.3 mph S3.7 kmh S 2.3 mph3.7 kmh 29.74 in1007.1 mb - 0.00 in0.0 mm 0.00 in0.0 mm
10:55 PM 93.0°F33.9°C 32.9°F0.5°C 12% 2.3 mph ENE3.7 kmh ENE 3.5 mph5.6 kmh 29.74 in1007.1 mb - 0.00 in0.0 mm 0.00 in0.0 mm
11:00 PM 92.8°F33.8°C 32.7°F0.4°C 12% 2.3 mph S3.7 kmh S 2.3 mph3.7 kmh 29.74 in1007.1 mb - 0.00 in0.0 mm 0.00 in0.0 mm
11:05 PM 92.7°F33.7°C 32.6°F0.3°C 12% 2.3 mph S3.7 kmh S 2.3 mph3.7 kmh 29.74 in1007.1 mb - 0.00 in0.0 mm 0.00 in0.0 mm
11:10 PM 92.3°F33.5°C 34.3°F1.3°C 13% 1.2 mph SE1.9 kmh SE 1.2 mph1.9 kmh 29.74 in1007.1 mb - 0.00 in0.0 mm 0.00 in0.0 mm
11:15 PM 91.8°F33.2°C 34.0°F1.1°C 13% Calm Calm -- 29.74 in1007.1 mb - 0.00 in0.0 mm 0.00 in0.0 mm
11:20 PM 91.6°F33.1°C 33.8°F1.0°C 13% Calm Calm -- 29.74 in1007.1 mb - 0.00 in0.0 mm 0.00 in0.0 mm
11:25 PM 91.4°F33.0°C 33.6°F0.9°C 13% Calm Calm -- 29.74 in1007.1 mb - 0.00 in0.0 mm 0.00 in0.0 mm
11:30 PM 91.2°F32.9°C 33.5°F0.8°C 13% 1.2 mph S1.9 kmh S 2.3 mph3.7 kmh 29.74 in1007.1 mb - 0.00 in0.0 mm 0.00 in0.0 mm
11:35 PM 91.3°F32.9°C 33.6°F0.9°C 13% 2.3 mph ESE3.7 kmh ESE 2.3 mph3.7 kmh 29.75 in1007.5 mb - 0.00 in0.0 mm 0.00 in0.0 mm
11:40 PM 90.9°F32.7°C 35.1°F1.7°C 14% Calm Calm -- 29.75 in1007.5 mb - 0.00 in0.0 mm 0.00 in0.0 mm
11:45 PM 91.2°F32.9°C 35.3°F1.8°C 14% 2.3 mph SSE3.7 kmh SSE 2.3 mph3.7 kmh 29.75 in1007.5 mb - 0.00 in0.0 mm 0.00 in0.0 mm
11:50 PM 91.4°F33.0°C 35.5°F1.9°C 14% 2.3 mph SE3.7 kmh SE 2.3 mph3.7 kmh 29.75 in1007.5 mb - 0.00 in0.0 mm 0.00 in0.0 mm
11:55 PM 91.2°F32.9°C 35.3°F1.8°C 14% 2.3 mph SE3.7 kmh SE 2.3 mph3.7 kmh 29.75 in1007.5 mb - 0.00 in0.0 mm 0.00 in0.0 mm